sensor_id;sensor_type;location;lat;lon;timestamp;temperature;humidity
3548;DHT22;1788;49.400;11.092;2022-09-28T00:03:33;10.90;65.20
3548;DHT22;1788;49.400;11.092;2022-09-28T00:06:01;10.90;65.10
3548;DHT22;1788;49.400;11.092;2022-09-28T00:08:26;10.90;65.00
3548;DHT22;1788;49.400;11.092;2022-09-28T00:10:53;10.90;65.00
3548;DHT22;1788;49.400;11.092;2022-09-28T00:13:20;10.90;65.00
3548;DHT22;1788;49.400;11.092;2022-09-28T00:15:46;10.90;64.90
3548;DHT22;1788;49.400;11.092;2022-09-28T00:18:13;11.00;65.00
3548;DHT22;1788;49.400;11.092;2022-09-28T00:20:39;11.00;65.00
3548;DHT22;1788;49.400;11.092;2022-09-28T00:23:06;11.00;65.00
3548;DHT22;1788;49.400;11.092;2022-09-28T00:25:33;11.00;65.00
3548;DHT22;1788;49.400;11.092;2022-09-28T00:27:59;11.00;64.90
3548;DHT22;1788;49.400;11.092;2022-09-28T00:30:27;11.10;65.00
3548;DHT22;1788;49.400;11.092;2022-09-28T00:32:54;11.10;65.00
3548;DHT22;1788;49.400;11.092;2022-09-28T00:35:20;11.10;65.00
3548;DHT22;1788;49.400;11.092;2022-09-28T00:37:47;11.10;65.00
3548;DHT22;1788;49.400;11.092;2022-09-28T00:40:14;11.10;64.90
3548;DHT22;1788;49.400;11.092;2022-09-28T00:42:40;11.10;64.90
3548;DHT22;1788;49.400;11.092;2022-09-28T00:45:08;11.10;64.20
3548;DHT22;1788;49.400;11.092;2022-09-28T00:52:30;11.10;65.00
3548;DHT22;1788;49.400;11.092;2022-09-28T00:54:54;11.10;65.00
3548;DHT22;1788;49.400;11.092;2022-09-28T00:57:21;11.00;65.00
3548;DHT22;1788;49.400;11.092;2022-09-28T00:59:47;11.00;65.00
3548;DHT22;1788;49.400;11.092;2022-09-28T01:02:14;11.00;65.90
3548;DHT22;1788;49.400;11.092;2022-09-28T01:04:40;11.00;65.20
3548;DHT22;1788;49.400;11.092;2022-09-28T01:07:07;11.00;65.30
3548;DHT22;1788;49.400;11.092;2022-09-28T01:09:35;11.00;65.40
3548;DHT22;1788;49.400;11.092;2022-09-28T01:12:00;11.00;65.40
3548;DHT22;1788;49.400;11.092;2022-09-28T01:14:27;11.00;65.30
3548;DHT22;1788;49.400;11.092;2022-09-28T01:21:49;10.90;65.30
3548;DHT22;1788;49.400;11.092;2022-09-28T01:24:19;10.90;65.30
3548;DHT22;1788;49.400;11.092;2022-09-28T01:26:41;10.90;65.40
3548;DHT22;1788;49.400;11.092;2022-09-28T01:29:10;10.90;65.40
3548;DHT22;1788;49.400;11.092;2022-09-28T01:31:33;10.90;65.50
3548;DHT22;1788;49.400;11.092;2022-09-28T01:34:02;10.80;65.60
3548;DHT22;1788;49.400;11.092;2022-09-28T01:36:27;10.80;65.60
3548;DHT22;1788;49.400;11.092;2022-09-28T01:41:20;10.80;65.80
3548;DHT22;1788;49.400;11.092;2022-09-28T01:43:48;10.70;65.80
3548;DHT22;1788;49.400;11.092;2022-09-28T01:46:15;10.70;66.60
3548;DHT22;1788;49.400;11.092;2022-09-28T01:51:07;10.70;66.00
3548;DHT22;1788;49.400;11.092;2022-09-28T01:56:02;10.70;66.20
3548;DHT22;1788;49.400;11.092;2022-09-28T01:58:27;10.70;66.20
3548;DHT22;1788;49.400;11.092;2022-09-28T02:00:55;10.70;66.20
3548;DHT22;1788;49.400;11.092;2022-09-28T02:03:23;10.70;66.50
3548;DHT22;1788;49.400;11.092;2022-09-28T02:05:48;10.70;66.50
3548;DHT22;1788;49.400;11.092;2022-09-28T02:08:16;10.70;66.50
3548;DHT22;1788;49.400;11.092;2022-09-28T02:10:43;10.70;66.60
3548;DHT22;1788;49.400;11.092;2022-09-28T02:13:10;10.70;66.70
3548;DHT22;1788;49.400;11.092;2022-09-28T02:15:39;10.70;66.70
3548;DHT22;1788;49.400;11.092;2022-09-28T02:18:01;10.70;66.70
3548;DHT22;1788;49.400;11.092;2022-09-28T02:20:28;10.70;66.90
3548;DHT22;1788;49.400;11.092;2022-09-28T02:22:54;10.70;66.90
3548;DHT22;1788;49.400;11.092;2022-09-28T02:30:14;10.80;67.00
3548;DHT22;1788;49.400;11.092;2022-09-28T02:32:41;10.80;67.00
3548;DHT22;1788;49.400;11.092;2022-09-28T02:37:34;10.80;67.10
3548;DHT22;1788;49.400;11.092;2022-09-28T02:40:01;10.90;67.30
3548;DHT22;1788;49.400;11.092;2022-09-28T02:44:59;10.90;67.20
3548;DHT22;1788;49.400;11.092;2022-09-28T03:02:02;10.80;67.40
3548;DHT22;1788;49.400;11.092;2022-09-28T03:06:58;10.70;67.70
3548;DHT22;1788;49.400;11.092;2022-09-28T03:09:25;10.70;67.90
3548;DHT22;1788;49.400;11.092;2022-09-28T03:14:14;10.80;68.10
3548;DHT22;1788;49.400;11.092;2022-09-28T03:19:07;10.70;68.00
3548;DHT22;1788;49.400;11.092;2022-09-28T03:21:33;10.70;68.10
3548;DHT22;1788;49.400;11.092;2022-09-28T03:24:00;10.70;68.30
3548;DHT22;1788;49.400;11.092;2022-09-28T03:26:27;10.70;68.30
3548;DHT22;1788;49.400;11.092;2022-09-28T03:28:53;10.80;68.50
3548;DHT22;1788;49.400;11.092;2022-09-28T03:31:20;10.80;68.40
3548;DHT22;1788;49.400;11.092;2022-09-28T03:33:47;10.80;68.40
3548;DHT22;1788;49.400;11.092;2022-09-28T03:36:15;10.80;68.30
3548;DHT22;1788;49.400;11.092;2022-09-28T03:38:41;10.70;68.20
3548;DHT22;1788;49.400;11.092;2022-09-28T03:41:09;10.70;68.60
3548;DHT22;1788;49.400;11.092;2022-09-28T03:43:35;10.70;68.60
3548;DHT22;1788;49.400;11.092;2022-09-28T03:46:02;10.70;68.70
3548;DHT22;1788;49.400;11.092;2022-09-28T03:48:30;10.70;69.00
3548;DHT22;1788;49.400;11.092;2022-09-28T03:50:56;10.70;69.00
3548;DHT22;1788;49.400;11.092;2022-09-28T03:53:22;10.70;69.00
3548;DHT22;1788;49.400;11.092;2022-09-28T03:55:49;10.70;69.10
3548;DHT22;1788;49.400;11.092;2022-09-28T03:58:16;10.70;69.10
3548;DHT22;1788;49.400;11.092;2022-09-28T04:00:42;10.70;69.10
3548;DHT22;1788;49.400;11.092;2022-09-28T04:03:09;10.80;69.30
3548;DHT22;1788;49.400;11.092;2022-09-28T04:05:35;10.80;69.30
3548;DHT22;1788;49.400;11.092;2022-09-28T04:08:02;10.80;69.30
3548;DHT22;1788;49.400;11.092;2022-09-28T04:10:29;10.80;69.10
3548;DHT22;1788;49.400;11.092;2022-09-28T04:12:55;10.80;69.20
3548;DHT22;1788;49.400;11.092;2022-09-28T04:15:22;10.80;69.40
3548;DHT22;1788;49.400;11.092;2022-09-28T04:17:49;10.80;69.50
3548;DHT22;1788;49.400;11.092;2022-09-28T04:20:15;10.80;69.60
3548;DHT22;1788;49.400;11.092;2022-09-28T04:22:42;10.80;69.80
3548;DHT22;1788;49.400;11.092;2022-09-28T04:25:08;10.80;69.80
3548;DHT22;1788;49.400;11.092;2022-09-28T04:27:35;10.80;69.90
3548;DHT22;1788;49.400;11.092;2022-09-28T04:30:02;10.80;69.90
3548;DHT22;1788;49.400;11.092;2022-09-28T04:32:28;10.90;70.00
3548;DHT22;1788;49.400;11.092;2022-09-28T04:34:55;10.90;70.00
3548;DHT22;1788;49.400;11.092;2022-09-28T04:37:21;10.90;69.90
3548;DHT22;1788;49.400;11.092;2022-09-28T04:39:48;11.00;70.00
3548;DHT22;1788;49.400;11.092;2022-09-28T04:42:14;11.00;69.90
3548;DHT22;1788;49.400;11.092;2022-09-28T04:44:41;10.90;69.80
3548;DHT22;1788;49.400;11.092;2022-09-28T04:47:08;10.90;69.90
3548;DHT22;1788;49.400;11.092;2022-09-28T04:49:35;10.90;70.00
3548;DHT22;1788;49.400;11.092;2022-09-28T04:52:01;10.90;70.20
3548;DHT22;1788;49.400;11.092;2022-09-28T04:54:28;10.90;70.30
3548;DHT22;1788;49.400;11.092;2022-09-28T04:56:54;10.90;70.50
3548;DHT22;1788;49.400;11.092;2022-09-28T04:59:21;10.80;70.50
3548;DHT22;1788;49.400;11.092;2022-09-28T05:01:48;10.90;70.80
3548;DHT22;1788;49.400;11.092;2022-09-28T05:04:15;10.90;70.90
3548;DHT22;1788;49.400;11.092;2022-09-28T05:06:43;11.00;71.10
3548;DHT22;1788;49.400;11.092;2022-09-28T05:09:10;10.90;71.00
3548;DHT22;1788;49.400;11.092;2022-09-28T05:11:36;11.00;71.00
3548;DHT22;1788;49.400;11.092;2022-09-28T05:14:03;11.00;71.00
3548;DHT22;1788;49.400;11.092;2022-09-28T05:16:30;11.10;71.00
3548;DHT22;1788;49.400;11.092;2022-09-28T05:18:56;11.10;71.00
3548;DHT22;1788;49.400;11.092;2022-09-28T05:21:23;11.10;70.90
3548;DHT22;1788;49.400;11.092;2022-09-28T05:23:50;11.20;71.00
3548;DHT22;1788;49.400;11.092;2022-09-28T05:26:16;11.20;70.90
3548;DHT22;1788;49.400;11.092;2022-09-28T05:28:43;11.20;70.90
3548;DHT22;1788;49.400;11.092;2022-09-28T05:31:09;11.20;71.00
3548;DHT22;1788;49.400;11.092;2022-09-28T05:33:37;11.20;71.00
3548;DHT22;1788;49.400;11.092;2022-09-28T05:36:03;11.30;71.10
3548;DHT22;1788;49.400;11.092;2022-09-28T05:38:30;11.30;71.20
3548;DHT22;1788;49.400;11.092;2022-09-28T05:40:57;11.30;71.20
3548;DHT22;1788;49.400;11.092;2022-09-28T05:43:24;11.30;71.20
3548;DHT22;1788;49.400;11.092;2022-09-28T05:45:50;11.30;71.10
3548;DHT22;1788;49.400;11.092;2022-09-28T05:48:18;11.30;71.20
3548;DHT22;1788;49.400;11.092;2022-09-28T05:50:48;11.40;71.40
3548;DHT22;1788;49.400;11.092;2022-09-28T05:53:11;11.40;71.40
3548;DHT22;1788;49.400;11.092;2022-09-28T05:55:38;11.40;71.40
3548;DHT22;1788;49.400;11.092;2022-09-28T05:58:05;11.50;71.40
3548;DHT22;1788;49.400;11.092;2022-09-28T06:00:31;11.50;71.40
3548;DHT22;1788;49.400;11.092;2022-09-28T06:02:58;11.50;71.40
3548;DHT22;1788;49.400;11.092;2022-09-28T06:05:24;11.50;71.40
3548;DHT22;1788;49.400;11.092;2022-09-28T06:07:51;11.50;71.30
3548;DHT22;1788;49.400;11.092;2022-09-28T06:10:17;11.50;71.30
3548;DHT22;1788;49.400;11.092;2022-09-28T06:12:44;11.60;71.30
3548;DHT22;1788;49.400;11.092;2022-09-28T06:15:10;11.60;71.30
3548;DHT22;1788;49.400;11.092;2022-09-28T06:17:37;11.60;71.40
3548;DHT22;1788;49.400;11.092;2022-09-28T06:20:05;11.60;71.50
3548;DHT22;1788;49.400;11.092;2022-09-28T06:22:31;11.60;71.40
3548;DHT22;1788;49.400;11.092;2022-09-28T06:24:59;11.60;71.70
3548;DHT22;1788;49.400;11.092;2022-09-28T06:27:25;11.60;71.70
3548;DHT22;1788;49.400;11.092;2022-09-28T06:29:52;11.60;71.70
3548;DHT22;1788;49.400;11.092;2022-09-28T06:32:18;11.60;71.60
3548;DHT22;1788;49.400;11.092;2022-09-28T06:34:45;11.50;72.30
3548;DHT22;1788;49.400;11.092;2022-09-28T06:37:12;11.50;71.60
3548;DHT22;1788;49.400;11.092;2022-09-28T06:39:38;11.50;71.80
3548;DHT22;1788;49.400;11.092;2022-09-28T06:42:06;11.50;72.00
3548;DHT22;1788;49.400;11.092;2022-09-28T06:44:32;11.50;72.00
3548;DHT22;1788;49.400;11.092;2022-09-28T06:46:59;11.50;72.00
3548;DHT22;1788;49.400;11.092;2022-09-28T06:49:25;11.40;72.40
3548;DHT22;1788;49.400;11.092;2022-09-28T06:51:52;11.40;72.10
3548;DHT22;1788;49.400;11.092;2022-09-28T06:54:19;11.40;72.20
3548;DHT22;1788;49.400;11.092;2022-09-28T06:56:45;11.40;72.30
3548;DHT22;1788;49.400;11.092;2022-09-28T06:59:12;11.40;72.40
3548;DHT22;1788;49.400;11.092;2022-09-28T07:01:38;11.40;72.50
3548;DHT22;1788;49.400;11.092;2022-09-28T07:04:05;11.40;72.60
3548;DHT22;1788;49.400;11.092;2022-09-28T07:06:32;11.40;72.70
3548;DHT22;1788;49.400;11.092;2022-09-28T07:08:58;11.50;72.90
3548;DHT22;1788;49.400;11.092;2022-09-28T07:11:25;11.50;72.90
3548;DHT22;1788;49.400;11.092;2022-09-28T07:13:52;11.50;72.90
3548;DHT22;1788;49.400;11.092;2022-09-28T07:16:18;11.60;73.00
3548;DHT22;1788;49.400;11.092;2022-09-28T07:18:45;11.60;73.00
3548;DHT22;1788;49.400;11.092;2022-09-28T07:21:11;11.70;73.00
3548;DHT22;1788;49.400;11.092;2022-09-28T07:23:38;11.70;72.90
3548;DHT22;1788;49.400;11.092;2022-09-28T07:26:05;11.70;72.80
3548;DHT22;1788;49.400;11.092;2022-09-28T07:28:31;11.70;72.80
3548;DHT22;1788;49.400;11.092;2022-09-28T07:30:58;11.70;72.80
3548;DHT22;1788;49.400;11.092;2022-09-28T07:33:24;11.80;72.90
3548;DHT22;1788;49.400;11.092;2022-09-28T07:35:51;11.80;72.90
3548;DHT22;1788;49.400;11.092;2022-09-28T07:38:18;11.80;72.90
3548;DHT22;1788;49.400;11.092;2022-09-28T07:40:44;11.80;72.80
3548;DHT22;1788;49.400;11.092;2022-09-28T07:43:11;11.80;72.80
3548;DHT22;1788;49.400;11.092;2022-09-28T07:45:38;11.90;73.00
3548;DHT22;1788;49.400;11.092;2022-09-28T07:48:05;12.00;73.10
3548;DHT22;1788;49.400;11.092;2022-09-28T07:50:32;11.90;72.90
3548;DHT22;1788;49.400;11.092;2022-09-28T07:52:59;12.00;73.00
3548;DHT22;1788;49.400;11.092;2022-09-28T07:55:25;12.00;72.90
3548;DHT22;1788;49.400;11.092;2022-09-28T07:57:53;12.10;72.90
3548;DHT22;1788;49.400;11.092;2022-09-28T08:00:19;12.10;72.90
3548;DHT22;1788;49.400;11.092;2022-09-28T08:02:45;12.10;72.90
3548;DHT22;1788;49.400;11.092;2022-09-28T08:05:12;12.10;72.90
3548;DHT22;1788;49.400;11.092;2022-09-28T08:07:39;12.20;72.90
3548;DHT22;1788;49.400;11.092;2022-09-28T08:10:05;12.20;72.80
3548;DHT22;1788;49.400;11.092;2022-09-28T08:12:32;12.20;72.90
3548;DHT22;1788;49.400;11.092;2022-09-28T08:15:04;12.30;73.20
3548;DHT22;1788;49.400;11.092;2022-09-28T08:17:30;12.40;73.00
3548;DHT22;1788;49.400;11.092;2022-09-28T08:19:57;12.40;72.80
3548;DHT22;1788;49.400;11.092;2022-09-28T08:22:23;12.40;72.60
3548;DHT22;1788;49.400;11.092;2022-09-28T08:24:50;12.50;72.70
3548;DHT22;1788;49.400;11.092;2022-09-28T08:27:17;12.50;72.60
3548;DHT22;1788;49.400;11.092;2022-09-28T08:29:43;12.60;72.60
3548;DHT22;1788;49.400;11.092;2022-09-28T08:32:10;12.60;72.40
3548;DHT22;1788;49.400;11.092;2022-09-28T08:34:38;12.60;72.00
3548;DHT22;1788;49.400;11.092;2022-09-28T08:37:05;12.40;71.70
3548;DHT22;1788;49.400;11.092;2022-09-28T08:39:32;12.40;71.40
3548;DHT22;1788;49.400;11.092;2022-09-28T08:42:02;12.40;71.20
3548;DHT22;1788;49.400;11.092;2022-09-28T08:44:37;12.30;71.20
3548;DHT22;1788;49.400;11.092;2022-09-28T08:49:20;12.10;71.20
3548;DHT22;1788;49.400;11.092;2022-09-28T09:03:59;11.90;71.60
3548;DHT22;1788;49.400;11.092;2022-09-28T09:11:27;12.10;72.00
3548;DHT22;1788;49.400;11.092;2022-09-28T09:16:19;12.20;71.60
3548;DHT22;1788;49.400;11.092;2022-09-28T09:18:47;12.20;71.50
3548;DHT22;1788;49.400;11.092;2022-09-28T09:23:37;12.20;71.40
3548;DHT22;1788;49.400;11.092;2022-09-28T09:48:09;12.30;71.00
3548;DHT22;1788;49.400;11.092;2022-09-28T09:50:35;12.40;70.90
3548;DHT22;1788;49.400;11.092;2022-09-28T09:57:58;12.50;71.00
3548;DHT22;1788;49.400;11.092;2022-09-28T10:00:22;12.70;71.60
3548;DHT22;1788;49.400;11.092;2022-09-28T10:02:48;12.60;70.70
3548;DHT22;1788;49.400;11.092;2022-09-28T10:05:16;12.70;70.80
3548;DHT22;1788;49.400;11.092;2022-09-28T10:12:35;13.10;70.50
3548;DHT22;1788;49.400;11.092;2022-09-28T10:15:02;13.20;70.20
3548;DHT22;1788;49.400;11.092;2022-09-28T10:17:28;13.30;70.10
3548;DHT22;1788;49.400;11.092;2022-09-28T10:19:55;13.20;69.70
3548;DHT22;1788;49.400;11.092;2022-09-28T10:22:23;13.30;69.60
3548;DHT22;1788;49.400;11.092;2022-09-28T10:24:49;13.30;69.50
3548;DHT22;1788;49.400;11.092;2022-09-28T10:27:16;13.30;69.40
3548;DHT22;1788;49.400;11.092;2022-09-28T10:29:45;13.30;69.30
3548;DHT22;1788;49.400;11.092;2022-09-28T10:34:36;13.40;69.00
3548;DHT22;1788;49.400;11.092;2022-09-28T10:37:03;13.40;69.00
3548;DHT22;1788;49.400;11.092;2022-09-28T10:41:58;13.70;69.20
3548;DHT22;1788;49.400;11.092;2022-09-28T10:44:24;14.10;67.90
3548;DHT22;1788;49.400;11.092;2022-09-28T10:49:18;14.30;67.70
3548;DHT22;1788;49.400;11.092;2022-09-28T10:51:46;14.50;67.30
3548;DHT22;1788;49.400;11.092;2022-09-28T10:56:38;14.90;66.10
3548;DHT22;1788;49.400;11.092;2022-09-28T11:01:33;15.30;65.30
3548;DHT22;1788;49.400;11.092;2022-09-28T11:04:02;15.30;64.40
3548;DHT22;1788;49.400;11.092;2022-09-28T11:06:28;15.30;64.10
3548;DHT22;1788;49.400;11.092;2022-09-28T11:08:55;15.30;63.50
3548;DHT22;1788;49.400;11.092;2022-09-28T11:11:21;15.20;63.20
3548;DHT22;1788;49.400;11.092;2022-09-28T11:13:48;15.20;63.00
3548;DHT22;1788;49.400;11.092;2022-09-28T11:18:41;15.40;62.70
3548;DHT22;1788;49.400;11.092;2022-09-28T11:21:09;15.60;62.50
3548;DHT22;1788;49.400;11.092;2022-09-28T11:23:34;15.80;61.60
3548;DHT22;1788;49.400;11.092;2022-09-28T11:26:03;15.90;61.20
3548;DHT22;1788;49.400;11.092;2022-09-28T11:30:55;16.20;60.00
3548;DHT22;1788;49.400;11.092;2022-09-28T11:48:04;16.60;57.90
3548;DHT22;1788;49.400;11.092;2022-09-28T11:50:32;16.70;57.60
3548;DHT22;1788;49.400;11.092;2022-09-28T11:52:59;16.90;57.30
3548;DHT22;1788;49.400;11.092;2022-09-28T11:57:53;17.20;56.30
3548;DHT22;1788;49.400;11.092;2022-09-28T12:07:40;17.10;55.70
3548;DHT22;1788;49.400;11.092;2022-09-28T12:10:10;17.10;55.70
3548;DHT22;1788;49.400;11.092;2022-09-28T12:15:00;17.00;55.90
3548;DHT22;1788;49.400;11.092;2022-09-28T12:19:52;17.20;55.70
3548;DHT22;1788;49.400;11.092;2022-09-28T12:22:19;17.60;55.40
3548;DHT22;1788;49.400;11.092;2022-09-28T12:29:40;18.80;53.20
3548;DHT22;1788;49.400;11.092;2022-09-28T12:34:32;19.20;52.70
3548;DHT22;1788;49.400;11.092;2022-09-28T12:37:02;19.50;52.10
3548;DHT22;1788;49.400;11.092;2022-09-28T13:13:46;16.80;52.10
3548;DHT22;1788;49.400;11.092;2022-09-28T13:16:09;16.60;52.20
3548;DHT22;1788;49.400;11.092;2022-09-28T13:18:38;16.40;51.70
3548;DHT22;1788;49.400;11.092;2022-09-28T13:21:03;16.40;52.20
3548;DHT22;1788;49.400;11.092;2022-09-28T13:25:55;17.10;51.40
3548;DHT22;1788;49.400;11.092;2022-09-28T13:28:21;17.20;51.00
3548;DHT22;1788;49.400;11.092;2022-09-28T13:30:48;17.20;50.70
3548;DHT22;1788;49.400;11.092;2022-09-28T13:33:16;17.20;50.70
3548;DHT22;1788;49.400;11.092;2022-09-28T13:35:42;17.00;50.60
3548;DHT22;1788;49.400;11.092;2022-09-28T13:43:05;16.90;50.60
3548;DHT22;1788;49.400;11.092;2022-09-28T13:45:30;16.70;50.60
3548;DHT22;1788;49.400;11.092;2022-09-28T13:47:59;16.60;50.60
3548;DHT22;1788;49.400;11.092;2022-09-28T13:57:47;15.90;50.60
3548;DHT22;1788;49.400;11.092;2022-09-28T14:00:15;15.80;50.50
3548;DHT22;1788;49.400;11.092;2022-09-28T14:14:51;14.90;51.80
3548;DHT22;1788;49.400;11.092;2022-09-28T14:29:32;14.70;51.80
3548;DHT22;1788;49.400;11.092;2022-09-28T14:32:02;14.70;51.90
3548;DHT22;1788;49.400;11.092;2022-09-28T14:34:25;14.60;52.00
3548;DHT22;1788;49.400;11.092;2022-09-28T14:36:51;14.60;52.20
3548;DHT22;1788;49.400;11.092;2022-09-28T14:39:19;14.50;52.20
3548;DHT22;1788;49.400;11.092;2022-09-28T14:41:45;14.50;52.20
3548;DHT22;1788;49.400;11.092;2022-09-28T14:44:12;14.50;52.30
3548;DHT22;1788;49.400;11.092;2022-09-28T14:58:53;14.40;53.20
3548;DHT22;1788;49.400;11.092;2022-09-28T15:01:20;14.40;53.40
3548;DHT22;1788;49.400;11.092;2022-09-28T15:06:14;14.40;53.60
3548;DHT22;1788;49.400;11.092;2022-09-28T15:08:40;14.40;54.30
3548;DHT22;1788;49.400;11.092;2022-09-28T15:13:34;14.30;54.00
3548;DHT22;1788;49.400;11.092;2022-09-28T15:18:34;14.30;54.20
3548;DHT22;1788;49.400;11.092;2022-09-28T15:20:54;14.30;54.20
3548;DHT22;1788;49.400;11.092;2022-09-28T15:30:42;14.40;54.50
3548;DHT22;1788;49.400;11.092;2022-09-28T15:33:21;14.40;54.50
3548;DHT22;1788;49.400;11.092;2022-09-28T15:35:36;14.50;55.10
3548;DHT22;1788;49.400;11.092;2022-09-28T15:38:02;14.40;54.50
3548;DHT22;1788;49.400;11.092;2022-09-28T15:40:30;14.50;54.60
3548;DHT22;1788;49.400;11.092;2022-09-28T15:42:55;14.40;54.60
3548;DHT22;1788;49.400;11.092;2022-09-28T15:47:50;14.40;55.00
3548;DHT22;1788;49.400;11.092;2022-09-28T15:52:43;14.30;55.00
3548;DHT22;1788;49.400;11.092;2022-09-28T15:57:37;14.20;55.20
3548;DHT22;1788;49.400;11.092;2022-09-28T16:00:04;14.20;55.40
3548;DHT22;1788;49.400;11.092;2022-09-28T16:02:29;14.10;55.40
3548;DHT22;1788;49.400;11.092;2022-09-28T16:04:57;14.10;55.60
3548;DHT22;1788;49.400;11.092;2022-09-28T16:12:16;13.90;56.00
3548;DHT22;1788;49.400;11.092;2022-09-28T16:14:43;14.00;56.30
3548;DHT22;1788;49.400;11.092;2022-09-28T16:17:13;14.00;56.50
3548;DHT22;1788;49.400;11.092;2022-09-28T16:19:36;14.10;56.70
3548;DHT22;1788;49.400;11.092;2022-09-28T16:22:04;14.10;56.70
3548;DHT22;1788;49.400;11.092;2022-09-28T16:26:57;14.30;56.80
3548;DHT22;1788;49.400;11.092;2022-09-28T16:31:50;14.40;56.80
3548;DHT22;1788;49.400;11.092;2022-09-28T16:34:18;14.40;56.80
3548;DHT22;1788;49.400;11.092;2022-09-28T16:36:44;14.40;56.80
3548;DHT22;1788;49.400;11.092;2022-09-28T16:39:11;14.40;57.50
3548;DHT22;1788;49.400;11.092;2022-09-28T16:41:37;14.40;57.00
3548;DHT22;1788;49.400;11.092;2022-09-28T16:44:03;14.30;57.00
3548;DHT22;1788;49.400;11.092;2022-09-28T16:46:30;14.30;57.20
3548;DHT22;1788;49.400;11.092;2022-09-28T16:48:56;14.30;57.30
3548;DHT22;1788;49.400;11.092;2022-09-28T16:51:23;14.20;57.30
3548;DHT22;1788;49.400;11.092;2022-09-28T16:53:50;14.10;57.80
3548;DHT22;1788;49.400;11.092;2022-09-28T16:56:17;14.00;57.20
3548;DHT22;1788;49.400;11.092;2022-09-28T16:58:43;13.90;57.30
3548;DHT22;1788;49.400;11.092;2022-09-28T17:01:10;13.90;57.40
3548;DHT22;1788;49.400;11.092;2022-09-28T17:03:37;13.80;57.40
3548;DHT22;1788;49.400;11.092;2022-09-28T17:06:04;13.70;57.50
3548;DHT22;1788;49.400;11.092;2022-09-28T17:08:31;13.60;57.90
3548;DHT22;1788;49.400;11.092;2022-09-28T17:10:58;13.60;57.70
3548;DHT22;1788;49.400;11.092;2022-09-28T17:13:25;13.60;57.80
3548;DHT22;1788;49.400;11.092;2022-09-28T17:15:51;13.60;57.80
3548;DHT22;1788;49.400;11.092;2022-09-28T17:18:17;13.60;57.90
3548;DHT22;1788;49.400;11.092;2022-09-28T17:20:45;13.60;58.00
3548;DHT22;1788;49.400;11.092;2022-09-28T17:23:10;13.60;58.10
3548;DHT22;1788;49.400;11.092;2022-09-28T17:25:37;13.60;58.20
3548;DHT22;1788;49.400;11.092;2022-09-28T17:28:04;13.60;58.30
3548;DHT22;1788;49.400;11.092;2022-09-28T17:30:31;13.60;58.50
3548;DHT22;1788;49.400;11.092;2022-09-28T17:32:58;13.60;58.50
3548;DHT22;1788;49.400;11.092;2022-09-28T17:35:24;13.50;58.50
3548;DHT22;1788;49.400;11.092;2022-09-28T17:37:51;13.60;58.70
3548;DHT22;1788;49.400;11.092;2022-09-28T17:42:44;13.50;59.30
3548;DHT22;1788;49.400;11.092;2022-09-28T17:45:11;13.50;58.90
3548;DHT22;1788;49.400;11.092;2022-09-28T17:47:37;13.50;59.10
3548;DHT22;1788;49.400;11.092;2022-09-28T17:52:31;13.40;59.30
3548;DHT22;1788;49.400;11.092;2022-09-28T17:54:59;13.40;59.60
3548;DHT22;1788;49.400;11.092;2022-09-28T17:57:25;13.40;59.60
3548;DHT22;1788;49.400;11.092;2022-09-28T17:59:53;13.40;59.80
3548;DHT22;1788;49.400;11.092;2022-09-28T18:02:19;13.40;59.80
3548;DHT22;1788;49.400;11.092;2022-09-28T18:04:47;13.30;60.90
3548;DHT22;1788;49.400;11.092;2022-09-28T18:07:13;13.30;60.10
3548;DHT22;1788;49.400;11.092;2022-09-28T18:09:40;13.30;60.20
3548;DHT22;1788;49.400;11.092;2022-09-28T18:12:07;13.30;60.30
3548;DHT22;1788;49.400;11.092;2022-09-28T18:14:33;13.30;60.60
3548;DHT22;1788;49.400;11.092;2022-09-28T18:17:00;13.20;60.80
3548;DHT22;1788;49.400;11.092;2022-09-28T18:19:27;13.20;60.80
3548;DHT22;1788;49.400;11.092;2022-09-28T18:21:54;13.20;60.90
3548;DHT22;1788;49.400;11.092;2022-09-28T18:24:20;13.20;61.10
3548;DHT22;1788;49.400;11.092;2022-09-28T18:26:47;13.10;61.10
3548;DHT22;1788;49.400;11.092;2022-09-28T18:29:15;13.10;61.20
3548;DHT22;1788;49.400;11.092;2022-09-28T18:31:40;13.00;61.40
3548;DHT22;1788;49.400;11.092;2022-09-28T18:34:07;13.00;61.60
3548;DHT22;1788;49.400;11.092;2022-09-28T18:36:33;13.00;61.80
3548;DHT22;1788;49.400;11.092;2022-09-28T18:39:00;13.00;62.00
3548;DHT22;1788;49.400;11.092;2022-09-28T18:41:27;13.00;62.00
3548;DHT22;1788;49.400;11.092;2022-09-28T18:43:54;13.00;62.10
3548;DHT22;1788;49.400;11.092;2022-09-28T18:46:21;13.00;62.20
3548;DHT22;1788;49.400;11.092;2022-09-28T18:48:47;13.00;62.30
3548;DHT22;1788;49.400;11.092;2022-09-28T18:51:14;12.90;62.20
3548;DHT22;1788;49.400;11.092;2022-09-28T18:53:40;13.00;62.40
3548;DHT22;1788;49.400;11.092;2022-09-28T18:56:08;13.00;62.40
3548;DHT22;1788;49.400;11.092;2022-09-28T18:58:34;12.90;62.20
3548;DHT22;1788;49.400;11.092;2022-09-28T19:03:28;12.90;62.30
3548;DHT22;1788;49.400;11.092;2022-09-28T19:05:54;12.90;62.40
3548;DHT22;1788;49.400;11.092;2022-09-28T19:08:21;12.90;62.40
3548;DHT22;1788;49.400;11.092;2022-09-28T19:10:48;12.90;62.40
3548;DHT22;1788;49.400;11.092;2022-09-28T19:13:15;12.90;62.50
3548;DHT22;1788;49.400;11.092;2022-09-28T19:15:42;12.90;62.50
3548;DHT22;1788;49.400;11.092;2022-09-28T19:18:08;12.90;62.50
3548;DHT22;1788;49.400;11.092;2022-09-28T19:20:35;12.90;62.60
3548;DHT22;1788;49.400;11.092;2022-09-28T19:23:01;12.80;62.60
3548;DHT22;1788;49.400;11.092;2022-09-28T19:25:28;12.80;62.70
3548;DHT22;1788;49.400;11.092;2022-09-28T19:27:55;12.80;62.80
3548;DHT22;1788;49.400;11.092;2022-09-28T19:30:21;12.80;62.90
3548;DHT22;1788;49.400;11.092;2022-09-28T19:32:48;12.80;63.00
3548;DHT22;1788;49.400;11.092;2022-09-28T19:35:14;12.70;62.90
3548;DHT22;1788;49.400;11.092;2022-09-28T19:37:42;12.70;63.10
3548;DHT22;1788;49.400;11.092;2022-09-28T19:40:08;12.60;63.00
3548;DHT22;1788;49.400;11.092;2022-09-28T19:42:35;12.60;63.10
3548;DHT22;1788;49.400;11.092;2022-09-28T19:45:02;12.60;63.20
3548;DHT22;1788;49.400;11.092;2022-09-28T19:47:28;12.50;63.20
3548;DHT22;1788;49.400;11.092;2022-09-28T19:49:55;12.50;63.30
3548;DHT22;1788;49.400;11.092;2022-09-28T19:52:22;12.50;63.30
3548;DHT22;1788;49.400;11.092;2022-09-28T19:54:49;12.40;63.30
3548;DHT22;1788;49.400;11.092;2022-09-28T19:57:15;12.40;63.30
3548;DHT22;1788;49.400;11.092;2022-09-28T19:59:41;12.40;63.30
3548;DHT22;1788;49.400;11.092;2022-09-28T20:02:08;12.30;63.20
3548;DHT22;1788;49.400;11.092;2022-09-28T20:04:35;12.30;63.10
3548;DHT22;1788;49.400;11.092;2022-09-28T20:07:01;12.30;63.20
3548;DHT22;1788;49.400;11.092;2022-09-28T20:09:28;12.20;63.10
3548;DHT22;1788;49.400;11.092;2022-09-28T20:11:54;12.20;63.20
3548;DHT22;1788;49.400;11.092;2022-09-28T20:14:21;12.20;63.20
3548;DHT22;1788;49.400;11.092;2022-09-28T20:16:48;12.20;63.30
3548;DHT22;1788;49.400;11.092;2022-09-28T20:19:14;12.10;63.20
3548;DHT22;1788;49.400;11.092;2022-09-28T20:21:41;12.10;63.30
3548;DHT22;1788;49.400;11.092;2022-09-28T20:24:09;12.00;63.30
3548;DHT22;1788;49.400;11.092;2022-09-28T20:26:35;12.00;63.30